Time;durP1;ratioP1;P1;durP2;ratioP2;P2;SDS_P1;SDS_P2;PMS_P1;PMS_P2;Temp;Humidity;BMP_temperature;BMP_pressure;BME280_temperature;BME280_humidity;BME280_pressure;Samples;Min_cycle;Max_cycle;Signal;HPM_P1;HPM_P2
2022/10/09 00:01:26;;;;;;;2.83;1.40;;;8.20;99.90;;;;;;5034275;28;20519;-78
2022/10/09 00:03:53;;;;;;;1.70;1.30;;;8.20;99.90;;;;;;5032811;28;20037;-79
2022/10/09 00:06:28;;;;;;;3.92;1.90;;;8.10;99.90;;;;;;5030533;28;20499;-80
2022/10/09 00:08:53;;;;;;;3.85;1.65;;;8.00;99.90;;;;;;5032476;28;20104;-80
2022/10/09 00:11:24;;;;;;;3.78;1.27;;;8.00;99.90;;;;;;5033204;28;20100;-79
2022/10/09 00:13:51;;;;;;;2.33;1.52;;;8.00;99.90;;;;;;5032424;28;20032;-79
2022/10/09 00:16:18;;;;;;;4.57;1.20;;;8.10;99.90;;;;;;5032450;28;20040;-80
2022/10/09 00:18:44;;;;;;;3.70;1.23;;;8.10;99.90;;;;;;5033037;28;20479;-79
2022/10/09 00:21:22;;;;;;;3.85;1.10;;;8.10;99.90;;;;;;5031068;28;20108;-79
2022/10/09 00:23:48;;;;;;;1.98;1.30;;;7.90;99.90;;;;;;5031627;28;20499;-79
2022/10/09 00:26:15;;;;;;;5.35;1.27;;;7.80;99.90;;;;;;5033924;28;20091;-79
2022/10/09 00:28:40;;;;;;;2.75;1.02;;;7.80;99.90;;;;;;5034789;28;20029;-79
2022/10/09 00:31:07;;;;;;;2.28;1.10;;;7.80;99.90;;;;;;5038738;28;20502;-80
2022/10/09 00:33:34;;;;;;;1.83;1.13;;;7.70;99.90;;;;;;5045066;28;20078;-80
2022/10/09 00:36:05;;;;;;;2.05;1.23;;;7.70;99.90;;;;;;5046519;28;20075;-80
2022/10/09 00:38:31;;;;;;;3.22;1.30;;;7.60;99.90;;;;;;5042976;28;20029;-80
2022/10/09 00:40:56;;;;;;;1.48;1.25;;;7.60;99.90;;;;;;5038265;28;20053;-79
2022/10/09 00:43:44;;;;;;;2.38;1.00;;;7.40;99.90;;;;;;5043473;28;20472;-79
2022/10/09 00:46:15;;;;;;;2.58;1.17;;;7.30;99.90;;;;;;5046359;28;20108;-79
2022/10/09 00:48:41;;;;;;;1.70;1.20;;;7.30;99.90;;;;;;5046563;28;22031;-79
2022/10/09 00:51:06;;;;;;;3.53;1.30;;;7.30;99.90;;;;;;5048834;28;20128;-79
2022/10/09 00:53:32;;;;;;;2.30;1.00;;;7.30;99.90;;;;;;5047359;28;20059;-79
2022/10/09 00:55:57;;;;;;;2.80;1.40;;;7.30;99.90;;;;;;5043239;28;20140;-78
2022/10/09 00:58:24;;;;;;;1.50;1.30;;;7.20;99.90;;;;;;5049873;28;20471;-78
2022/10/09 01:00:50;;;;;;;3.22;1.25;;;7.30;99.90;;;;;;5046068;28;20032;-79
2022/10/09 01:03:16;;;;;;;2.72;1.20;;;7.30;99.90;;;;;;5047634;28;20308;-79
2022/10/09 01:06:04;;;;;;;1.13;1.02;;;7.30;99.90;;;;;;5044778;28;20025;-78
2022/10/09 01:08:52;;;;;;;2.55;1.25;;;7.30;99.90;;;;;;5048237;28;20103;-79
2022/10/09 01:11:30;;;;;;;5.43;1.55;;;7.30;99.90;;;;;;5043822;28;20091;-79
2022/10/09 01:14:24;;;;;;;3.08;1.70;;;7.40;99.90;;;;;;5042983;28;20392;-79
2022/10/09 01:17:01;;;;;;;2.35;1.48;;;7.30;99.90;;;;;;5046659;28;20041;-78
2022/10/09 01:19:44;;;;;;;1.50;1.25;;;7.30;99.90;;;;;;5043250;28;20705;-79
2022/10/09 01:22:40;;;;;;;1.60;1.00;;;7.40;99.90;;;;;;5043337;28;20112;-79
2022/10/09 01:25:09;;;;;;;6.60;1.40;;;7.30;99.90;;;;;;5044956;28;20496;-79
2022/10/09 01:27:36;;;;;;;2.88;1.35;;;7.40;99.90;;;;;;5045051;28;20032;-79
2022/10/09 01:30:05;;;;;;;8.93;1.15;;;7.50;99.90;;;;;;5045047;28;20522;-79
2022/10/09 01:32:35;;;;;;;3.83;1.35;;;7.40;99.90;;;;;;5044616;28;20049;-79
2022/10/09 01:35:05;;;;;;;2.72;1.30;;;7.50;99.90;;;;;;5048358;28;20568;-79
2022/10/09 01:37:32;;;;;;;1.67;1.33;;;7.40;99.90;;;;;;5048321;28;20047;-79
2022/10/09 01:39:59;;;;;;;2.28;1.20;;;7.40;99.90;;;;;;5048022;28;20129;-79
2022/10/09 01:42:27;;;;;;;2.97;1.38;;;7.30;99.90;;;;;;5043633;28;20025;-79
2022/10/09 01:44:52;;;;;;;2.92;1.15;;;7.40;99.90;;;;;;5034326;28;20122;-79
2022/10/09 01:47:20;;;;;;;5.30;1.10;;;7.30;99.90;;;;;;5048384;28;20482;-79
2022/10/09 01:50:08;;;;;;;4.43;1.20;;;7.30;99.90;;;;;;5045087;28;20510;-79
2022/10/09 01:52:55;;;;;;;2.97;1.52;;;7.20;99.90;;;;;;5044984;28;20372;-79
2022/10/09 01:55:35;;;;;;;2.40;1.48;;;7.20;99.90;;;;;;5036375;28;20055;-79
2022/10/09 01:58:30;;;;;;;3.45;1.27;;;7.20;99.90;;;;;;5037480;28;20104;-79
2022/10/09 02:01:19;;;;;;;4.03;1.20;;;7.30;99.90;;;;;;5031852;28;20084;-79
2022/10/09 02:03:48;;;;;;;6.10;1.60;;;7.30;99.90;;;;;;5046432;28;20053;-78
2022/10/09 02:06:16;;;;;;;1.48;1.20;;;7.30;99.90;;;;;;5044968;28;20021;-79
2022/10/09 02:08:44;;;;;;;5.05;1.38;;;7.30;99.90;;;;;;5048922;28;20028;-79
2022/10/09 02:11:13;;;;;;;2.55;1.33;;;7.20;99.90;;;;;;5037878;28;20484;-79
2022/10/09 02:13:39;;;;;;;2.22;1.02;;;7.20;99.90;;;;;;5044150;28;20403;-79
2022/10/09 02:16:18;;;;;;;1.27;1.08;;;7.20;99.90;;;;;;5045803;28;20035;-79
2022/10/09 02:18:49;;;;;;;3.05;1.52;;;7.10;99.90;;;;;;5043511;28;20118;-79
2022/10/09 02:21:19;;;;;;;4.22;1.10;;;7.10;99.90;;;;;;5038193;28;20037;-79
2022/10/09 02:23:47;;;;;;;2.30;1.20;;;7.10;99.90;;;;;;5043023;28;20032;-79
2022/10/09 02:26:13;;;;;;;3.88;1.20;;;7.00;99.90;;;;;;5047305;28;20025;-79
2022/10/09 02:28:38;;;;;;;1.77;1.10;;;7.10;99.90;;;;;;5047687;28;20025;-79
2022/10/09 02:31:24;;;;;;;2.15;1.10;;;7.10;99.90;;;;;;5043224;28;20140;-79
2022/10/09 02:33:58;;;;;;;3.80;1.45;;;7.10;99.90;;;;;;5043534;28;20033;-79
2022/10/09 02:36:24;;;;;;;3.53;1.30;;;7.00;99.90;;;;;;5045835;28;20365;-79
2022/10/09 02:38:49;;;;;;;2.47;1.02;;;7.00;99.90;;;;;;5038197;28;20032;-78
2022/10/09 02:41:15;;;;;;;2.50;1.13;;;7.00;99.90;;;;;;5043442;28;20950;-79
2022/10/09 02:43:40;;;;;;;1.20;1.02;;;7.10;99.90;;;;;;5043288;28;20025;-78
2022/10/09 02:46:06;;;;;;;4.40;1.10;;;7.10;99.90;;;;;;5046091;28;20029;-79
2022/10/09 02:48:31;;;;;;;2.95;1.10;;;7.00;99.90;;;;;;5037498;28;20037;-79
2022/10/09 02:50:57;;;;;;;4.22;0.95;;;7.00;99.90;;;;;;5035695;28;20051;-79
2022/10/09 02:53:23;;;;;;;3.33;1.10;;;6.90;99.90;;;;;;5043591;28;20036;-78
2022/10/09 02:55:48;;;;;;;2.70;1.38;;;6.90;99.90;;;;;;5044523;28;20438;-79
2022/10/09 02:58:14;;;;;;;1.30;0.80;;;6.90;99.90;;;;;;5045388;28;20044;-79
2022/10/09 03:00:39;;;;;;;4.20;0.95;;;6.90;99.90;;;;;;5041218;28;20039;-79
2022/10/09 03:03:05;;;;;;;3.65;0.90;;;6.90;99.90;;;;;;5042075;28;20510;-80
2022/10/09 03:05:30;;;;;;;3.28;1.00;;;7.00;99.90;;;;;;5037187;28;20067;-81
2022/10/09 03:07:57;;;;;;;2.33;1.38;;;7.10;99.90;;;;;;5045368;28;20021;-80
2022/10/09 03:10:23;;;;;;;3.70;1.00;;;7.10;99.90;;;;;;5044117;28;20147;-80
2022/10/09 03:12:48;;;;;;;1.95;1.00;;;7.10;99.90;;;;;;5045112;28;20111;-80
2022/10/09 03:15:14;;;;;;;3.78;1.30;;;7.10;99.90;;;;;;5045040;28;20048;-80
2022/10/09 03:17:39;;;;;;;4.43;1.25;;;7.00;99.90;;;;;;5046404;28;20051;-80
2022/10/09 03:20:06;;;;;;;3.03;0.93;;;7.00;99.90;;;;;;5037910;28;20503;-78
2022/10/09 03:22:31;;;;;;;4.97;1.10;;;7.00;99.90;;;;;;5043534;28;20435;-78
2022/10/09 03:24:57;;;;;;;1.63;1.00;;;7.00;99.90;;;;;;5023790;28;20059;-78
2022/10/09 03:27:22;;;;;;;2.05;1.65;;;7.00;99.90;;;;;;5035223;28;20503;-78
2022/10/09 03:29:47;;;;;;;3.72;1.98;;;7.00;99.90;;;;;;5046777;28;20107;-78
2022/10/09 03:32:13;;;;;;;1.02;0.90;;;7.00;99.90;;;;;;5046337;28;20041;-78
2022/10/09 03:34:38;;;;;;;5.55;1.13;;;6.90;99.90;;;;;;5043612;28;20101;-79
2022/10/09 03:37:04;;;;;;;2.47;0.82;;;6.80;99.90;;;;;;5040086;28;20033;-78
2022/10/09 03:39:29;;;;;;;4.07;1.42;;;6.80;99.90;;;;;;5044488;28;20610;-78
2022/10/09 03:41:55;;;;;;;3.22;1.08;;;6.70;99.90;;;;;;5045636;28;20033;-78
2022/10/09 03:44:20;;;;;;;3.17;1.00;;;6.60;99.90;;;;;;5040671;28;20049;-78
2022/10/09 03:46:46;;;;;;;3.22;1.42;;;6.50;99.90;;;;;;5043651;28;20467;-78
2022/10/09 03:49:12;;;;;;;1.60;1.20;;;6.40;99.90;;;;;;5042442;28;20033;-78
2022/10/09 03:51:37;;;;;;;4.10;1.10;;;6.40;99.90;;;;;;5041441;28;20055;-78
2022/10/09 03:54:03;;;;;;;1.38;0.95;;;6.40;99.90;;;;;;5044068;28;20055;-78
2022/10/09 03:56:28;;;;;;;5.00;1.15;;;6.40;99.90;;;;;;5045486;28;20025;-78
2022/10/09 03:58:54;;;;;;;2.33;1.08;;;6.30;99.90;;;;;;5042044;28;20033;-78
2022/10/09 04:01:19;;;;;;;1.50;1.00;;;6.20;99.90;;;;;;5043930;28;20368;-79
2022/10/09 04:03:45;;;;;;;2.67;1.25;;;6.20;99.90;;;;;;5043932;28;20090;-79
2022/10/09 04:06:10;;;;;;;1.85;0.98;;;6.10;99.90;;;;;;5041976;28;20036;-79
2022/10/09 04:08:36;;;;;;;9.85;1.33;;;6.00;99.90;;;;;;5041602;28;20017;-80
2022/10/09 04:11:02;;;;;;;1.00;0.90;;;6.00;99.90;;;;;;5044156;28;20025;-79
2022/10/09 04:13:28;;;;;;;1.33;1.00;;;6.00;99.90;;;;;;5044411;28;20756;-79
2022/10/09 04:15:54;;;;;;;3.83;1.50;;;5.90;99.90;;;;;;5040573;28;20159;-79
2022/10/09 04:18:20;;;;;;;2.20;1.42;;;5.90;99.90;;;;;;5034967;28;20025;-79
2022/10/09 04:20:51;;;;;;;1.70;0.95;;;6.00;99.90;;;;;;5047652;28;20392;-80
2022/10/09 04:23:17;;;;;;;1.98;1.02;;;5.90;99.90;;;;;;5046025;28;20040;-79
2022/10/09 04:25:44;;;;;;;1.15;1.00;;;5.80;99.90;;;;;;5049159;28;20029;-79
2022/10/09 04:28:10;;;;;;;2.33;1.02;;;5.80;99.90;;;;;;5043291;28;20044;-79
2022/10/09 04:30:35;;;;;;;1.60;1.00;;;5.80;99.90;;;;;;5047171;28;20045;-79
2022/10/09 04:33:01;;;;;;;1.33;0.80;;;5.80;99.90;;;;;;5045428;28;20036;-79
2022/10/09 04:35:26;;;;;;;0.90;0.75;;;5.70;99.90;;;;;;5050112;28;20723;-80
2022/10/09 04:37:52;;;;;;;1.75;1.17;;;5.70;99.90;;;;;;5049095;28;20032;-79
2022/10/09 04:40:17;;;;;;;3.42;1.55;;;5.70;99.90;;;;;;5041425;28;20083;-79
2022/10/09 04:42:43;;;;;;;2.00;1.05;;;5.60;99.90;;;;;;5047117;28;20395;-79
2022/10/09 04:45:09;;;;;;;1.33;0.95;;;5.70;99.90;;;;;;5048837;28;20027;-79
2022/10/09 04:47:34;;;;;;;1.67;1.05;;;5.70;99.90;;;;;;5043081;28;20029;-79
2022/10/09 04:50:00;;;;;;;3.40;1.02;;;5.70;99.90;;;;;;5045199;28;20107;-79
2022/10/09 04:52:25;;;;;;;1.33;1.00;;;5.60;99.90;;;;;;5045924;28;20020;-80
2022/10/09 04:54:51;;;;;;;1.73;0.95;;;5.40;99.90;;;;;;5042157;28;20026;-79
2022/10/09 04:57:16;;;;;;;2.45;1.20;;;5.40;99.90;;;;;;5047195;28;20039;-79
2022/10/09 04:59:42;;;;;;;4.28;0.95;;;5.40;99.90;;;;;;5043616;28;20098;-79
2022/10/09 05:02:08;;;;;;;2.90;1.10;;;5.40;99.90;;;;;;5045207;28;20021;-79
2022/10/09 05:04:33;;;;;;;2.17;0.98;;;5.40;99.90;;;;;;5049682;28;20044;-79
2022/10/09 05:06:58;;;;;;;0.73;0.73;;;5.30;99.90;;;;;;5034150;28;20013;-79
2022/10/09 05:09:24;;;;;;;4.97;1.17;;;5.30;99.90;;;;;;5037326;28;20075;-79
2022/10/09 05:11:49;;;;;;;1.90;0.98;;;5.30;99.90;;;;;;5045098;28;20391;-78
2022/10/09 05:14:15;;;;;;;5.78;1.05;;;5.30;99.90;;;;;;5038458;28;20033;-79
2022/10/09 05:16:40;;;;;;;3.05;1.13;;;5.30;99.90;;;;;;5045242;28;20053;-79
2022/10/09 05:19:06;;;;;;;3.72;1.00;;;5.30;99.90;;;;;;5045647;28;20391;-79
2022/10/09 05:21:32;;;;;;;3.38;1.05;;;5.20;99.90;;;;;;5042250;28;20025;-79
2022/10/09 05:23:57;;;;;;;0.93;0.82;;;5.20;99.90;;;;;;5035658;28;20124;-79
2022/10/09 05:26:24;;;;;;;1.35;0.98;;;5.20;99.90;;;;;;5043533;28;20030;-79
2022/10/09 05:28:50;;;;;;;1.60;0.93;;;5.20;99.90;;;;;;5044146;28;20071;-79
2022/10/09 05:31:22;;;;;;;1.60;0.98;;;5.10;99.90;;;;;;5043160;28;20084;-79
2022/10/09 05:33:48;;;;;;;1.77;1.30;;;5.10;99.90;;;;;;5035183;28;20037;-78
2022/10/09 05:36:14;;;;;;;1.38;0.90;;;5.20;99.90;;;;;;5045727;28;20075;-78
2022/10/09 05:38:39;;;;;;;1.35;1.00;;;5.30;99.90;;;;;;5048461;28;20121;-78
2022/10/09 05:41:09;;;;;;;1.60;1.02;;;5.30;99.90;;;;;;5048636;28;20028;-78
2022/10/09 05:43:37;;;;;;;2.05;1.23;;;5.30;99.90;;;;;;5036663;28;20464;-78
2022/10/09 05:46:09;;;;;;;2.63;1.20;;;5.30;99.90;;;;;;5046977;28;20032;-78
2022/10/09 05:48:35;;;;;;;1.98;0.95;;;5.30;99.90;;;;;;5039618;28;20036;-78
2022/10/09 05:51:14;;;;;;;1.10;1.00;;;5.30;99.90;;;;;;5049434;28;20033;-78
2022/10/09 05:53:41;;;;;;;1.90;1.10;;;5.30;99.90;;;;;;5047025;28;20049;-78
2022/10/09 05:56:14;;;;;;;2.47;1.73;;;5.30;99.90;;;;;;5045528;28;20044;-80
2022/10/09 05:58:41;;;;;;;2.70;1.08;;;5.40;99.90;;;;;;5044461;28;20033;-79
2022/10/09 06:01:07;;;;;;;1.15;1.05;;;5.40;99.90;;;;;;5045813;28;20037;-79
2022/10/09 06:03:36;;;;;;;3.45;1.55;;;5.40;99.90;;;;;;5039398;28;20112;-79
2022/10/09 06:06:04;;;;;;;2.17;1.30;;;5.50;99.90;;;;;;5042438;28;20083;-79
2022/10/09 06:08:35;;;;;;;4.72;1.35;;;5.60;99.90;;;;;;5040149;28;20028;-79
2022/10/09 06:11:15;;;;;;;2.88;1.48;;;5.80;99.90;;;;;;5042042;28;20029;-79
2022/10/09 06:13:42;;;;;;;1.92;1.13;;;6.00;99.90;;;;;;5044255;28;20102;-79
2022/10/09 06:16:12;;;;;;;2.33;1.20;;;6.20;99.90;;;;;;5047195;28;20060;-79
2022/10/09 06:18:39;;;;;;;6.30;1.30;;;6.30;99.90;;;;;;5045341;28;20041;-78
2022/10/09 06:21:05;;;;;;;2.03;1.40;;;6.50;99.90;;;;;;5040504;28;20068;-78
2022/10/09 06:23:31;;;;;;;1.88;1.10;;;6.70;99.90;;;;;;5041165;28;20531;-78
2022/10/09 06:25:59;;;;;;;7.03;1.67;;;6.70;99.90;;;;;;5041950;28;20094;-74
2022/10/09 06:28:27;;;;;;;3.90;1.58;;;6.60;99.90;;;;;;5047161;28;20598;-77
2022/10/09 06:30:53;;;;;;;2.65;1.38;;;6.70;99.90;;;;;;5037977;28;20124;-77
2022/10/09 06:33:18;;;;;;;4.65;1.60;;;6.80;99.90;;;;;;5046492;28;20458;-77
2022/10/09 06:35:44;;;;;;;1.98;1.40;;;7.00;99.90;;;;;;5041127;28;20086;-78
2022/10/09 06:38:09;;;;;;;1.83;1.55;;;7.00;99.90;;;;;;5042234;28;20025;-78
2022/10/09 06:40:36;;;;;;;3.22;1.58;;;7.10;99.90;;;;;;5040333;28;20025;-78
2022/10/09 06:43:03;;;;;;;5.53;1.65;;;7.20;99.90;;;;;;5043474;28;20056;-77
2022/10/09 06:45:29;;;;;;;2.15;1.52;;;7.30;99.90;;;;;;5042290;28;20706;-78
2022/10/09 06:47:54;;;;;;;1.58;1.27;;;7.40;99.90;;;;;;5043924;28;20112;-77
2022/10/09 06:50:23;;;;;;;4.80;1.55;;;7.50;99.90;;;;;;5033972;28;20021;-80
2022/10/09 06:52:49;;;;;;;19.02;1.65;;;7.50;99.90;;;;;;5034843;28;20035;-79
2022/10/09 06:55:14;;;;;;;11.60;2.40;;;7.60;99.90;;;;;;5037018;28;20025;-78
2022/10/09 06:57:40;;;;;;;6.57;1.60;;;7.60;99.90;;;;;;5042952;28;20360;-78
2022/10/09 07:00:06;;;;;;;3.40;1.80;;;7.70;99.90;;;;;;5047116;28;20025;-78
2022/10/09 07:02:32;;;;;;;5.75;1.75;;;7.70;99.90;;;;;;5037513;28;20068;-77
2022/10/09 07:04:57;;;;;;;1.65;1.40;;;7.90;99.90;;;;;;5038765;28;20029;-77
2022/10/09 07:07:23;;;;;;;3.10;1.70;;;7.90;99.90;;;;;;5043119;28;20024;-78
2022/10/09 07:09:48;;;;;;;7.20;1.70;;;8.00;99.90;;;;;;5043965;28;20031;-78
2022/10/09 07:12:14;;;;;;;4.65;1.58;;;8.10;99.90;;;;;;5039381;28;20039;-78
2022/10/09 07:14:39;;;;;;;4.00;2.10;;;8.10;99.90;;;;;;5044711;28;20021;-77
2022/10/09 07:17:05;;;;;;;4.05;2.00;;;8.20;99.90;;;;;;5039405;28;20025;-78
2022/10/09 07:19:30;;;;;;;2.60;1.88;;;8.30;99.90;;;;;;5039670;28;20029;-78
2022/10/09 07:21:56;;;;;;;4.68;1.70;;;8.40;99.90;;;;;;5041088;28;20033;-78
2022/10/09 07:24:23;;;;;;;3.22;1.52;;;8.50;99.90;;;;;;5036559;28;20923;-80
2022/10/09 07:26:49;;;;;;;3.50;1.50;;;8.50;99.90;;;;;;5039131;28;20033;-77
2022/10/09 07:29:15;;;;;;;5.88;1.55;;;8.50;99.90;;;;;;5037780;28;20036;-76
2022/10/09 07:31:41;;;;;;;2.97;1.58;;;8.60;99.90;;;;;;5040332;28;20094;-83
2022/10/09 07:34:07;;;;;;;3.30;1.75;;;8.60;99.90;;;;;;5041084;28;20024;-82
2022/10/09 07:36:33;;;;;;;5.53;2.53;;;8.70;99.90;;;;;;5033943;28;20425;-82
2022/10/09 07:38:59;;;;;;;7.05;1.60;;;8.70;99.90;;;;;;5042201;28;20039;-79
2022/10/09 07:41:26;;;;;;;6.68;2.00;;;8.80;99.90;;;;;;5038802;28;20029;-78
2022/10/09 07:43:52;;;;;;;7.55;1.80;;;8.80;99.90;;;;;;5041793;28;20029;-77
2022/10/09 07:46:20;;;;;;;3.60;1.77;;;8.90;99.90;;;;;;5040610;28;20062;-80
2022/10/09 07:48:46;;;;;;;4.22;1.52;;;9.00;99.90;;;;;;5027835;28;20025;-79
2022/10/09 07:51:19;;;;;;;6.63;2.42;;;9.00;99.90;;;;;;5032044;28;20163;-81
2022/10/09 07:53:45;;;;;;;3.95;2.28;;;9.20;99.90;;;;;;5031081;28;20033;-81
2022/10/09 07:56:15;;;;;;;2.60;1.60;;;9.30;99.90;;;;;;5035361;28;20036;-80
2022/10/09 07:58:42;;;;;;;4.75;2.00;;;9.40;99.90;;;;;;5033689;28;20079;-81
2022/10/09 08:01:08;;;;;;;5.63;2.03;;;9.50;99.90;;;;;;5033635;28;20135;-82
2022/10/09 08:03:35;;;;;;;4.00;1.55;;;9.60;99.90;;;;;;5033400;28;20025;-82
2022/10/09 08:06:00;;;;;;;5.65;1.70;;;9.60;99.90;;;;;;5035023;28;20022;-84
2022/10/09 08:08:26;;;;;;;2.72;1.45;;;9.70;99.90;;;;;;5033886;28;20076;-82
2022/10/09 08:10:51;;;;;;;4.20;1.60;;;9.70;99.90;;;;;;5033876;28;20056;-82
2022/10/09 08:13:17;;;;;;;4.30;1.73;;;9.80;99.90;;;;;;5034747;28;20443;-82
2022/10/09 08:15:43;;;;;;;2.08;1.63;;;9.80;99.90;;;;;;5036040;28;20399;-83
2022/10/09 08:18:10;;;;;;;3.58;1.75;;;10.00;99.90;;;;;;5033424;28;20513;-83
2022/10/09 08:20:36;;;;;;;3.42;1.77;;;10.10;99.90;;;;;;5034886;28;20554;-82
2022/10/09 08:23:01;;;;;;;6.95;1.77;;;10.20;99.90;;;;;;5034847;28;20036;-82
2022/10/09 08:25:27;;;;;;;2.45;1.40;;;10.30;99.90;;;;;;5035070;28;20029;-82
2022/10/09 08:27:53;;;;;;;5.80;1.50;;;10.30;99.90;;;;;;5033785;28;20492;-82
2022/10/09 08:30:19;;;;;;;3.25;1.40;;;10.40;99.90;;;;;;5031466;28;20398;-82
2022/10/09 08:32:45;;;;;;;2.55;1.60;;;10.50;99.90;;;;;;5034992;28;20134;-82
2022/10/09 08:35:10;;;;;;;5.15;1.65;;;10.70;99.90;;;;;;5031264;28;20653;-80
2022/10/09 08:37:36;;;;;;;1.98;1.58;;;10.90;99.90;;;;;;5029466;28;20033;-81
2022/10/09 08:40:03;;;;;;;2.95;1.75;;;11.00;99.90;;;;;;5033866;28;20079;-81
2022/10/09 08:42:41;;;;;;;8.90;3.00;;;11.20;99.90;;;;;;5034348;28;20026;-81
2022/10/09 08:45:15;;;;;;;4.95;1.42;;;11.20;99.90;;;;;;5030768;28;20159;-81
2022/10/09 08:47:52;;;;;;;4.63;1.40;;;11.40;99.90;;;;;;5033987;28;20045;-81
2022/10/09 08:50:24;;;;;;;8.90;2.10;;;11.40;99.90;;;;;;5025446;28;20029;-82
2022/10/09 08:53:21;;;;;;;8.07;1.83;;;11.60;99.90;;;;;;5033488;28;20032;-81
2022/10/09 08:55:52;;;;;;;7.00;2.17;;;11.70;99.90;;;;;;5033856;28;20075;-80
2022/10/09 08:58:22;;;;;;;5.10;1.52;;;11.80;99.90;;;;;;5030173;28;20083;-80
2022/10/09 09:01:14;;;;;;;2.58;1.20;;;11.90;99.90;;;;;;5034177;28;20696;-81
2022/10/09 09:04:17;;;;;;;1.88;1.20;;;12.10;99.90;;;;;;5022254;28;20042;-80
2022/10/09 09:06:54;;;;;;;3.40;1.20;;;12.20;99.90;;;;;;5033405;28;20075;-81
2022/10/09 09:09:58;;;;;;;4.22;1.60;;;12.30;99.90;;;;;;5031037;28;22012;-79
2022/10/09 09:12:41;;;;;;;3.58;1.20;;;12.30;99.90;;;;;;5032178;28;20112;-78
2022/10/09 09:15:16;;;;;;;9.00;1.80;;;12.40;99.90;;;;;;5036893;28;20039;-79
2022/10/09 09:18:08;;;;;;;3.63;1.42;;;12.60;99.90;;;;;;5037599;28;20491;-79
2022/10/09 09:21:01;;;;;;;4.55;1.20;;;12.60;99.90;;;;;;5037346;28;20037;-80
2022/10/09 09:23:41;;;;;;;3.42;1.35;;;12.70;99.90;;;;;;5037073;28;20021;-80
2022/10/09 09:26:17;;;;;;;3.53;1.40;;;12.80;99.90;;;;;;5039372;28;20053;-80
2022/10/09 09:28:43;;;;;;;5.28;1.67;;;13.00;99.90;;;;;;5037920;28;20021;-78
2022/10/09 09:31:18;;;;;;;6.68;1.67;;;13.10;99.90;;;;;;5037921;28;20037;-79
2022/10/09 09:34:15;;;;;;;7.07;1.40;;;13.10;99.90;;;;;;5037270;28;20056;-78
2022/10/09 09:37:06;;;;;;;4.93;1.40;;;13.40;99.90;;;;;;5029924;28;20052;-79
2022/10/09 09:39:34;;;;;;;2.00;0.98;;;13.70;99.90;;;;;;5035231;28;20029;-81
2022/10/09 09:42:08;;;;;;;4.07;1.50;;;13.80;99.90;;;;;;5032281;28;20048;-80
2022/10/09 09:44:38;;;;;;;2.25;1.10;;;13.90;99.90;;;;;;5035725;28;20131;-76
2022/10/09 09:47:07;;;;;;;1.77;1.02;;;14.00;99.90;;;;;;5033195;28;20061;-77
2022/10/09 09:49:33;;;;;;;2.33;1.15;;;14.10;99.90;;;;;;5037132;28;20028;-76
2022/10/09 09:52:02;;;;;;;5.28;0.90;;;14.40;99.90;;;;;;5038411;28;20033;-76
2022/10/09 09:54:29;;;;;;;5.78;1.30;;;14.60;99.90;;;;;;5035294;28;20041;-74
2022/10/09 09:56:57;;;;;;;2.22;1.00;;;14.80;99.90;;;;;;5031884;28;20391;-78
2022/10/09 09:59:40;;;;;;;2.25;0.93;;;14.90;99.90;;;;;;5036103;28;20668;-75
2022/10/09 10:02:22;;;;;;;3.65;1.00;;;15.00;99.90;;;;;;5035996;28;20036;-76
2022/10/09 10:04:56;;;;;;;4.88;1.45;;;14.80;99.90;;;;;;5031205;28;20086;-76
2022/10/09 10:07:37;;;;;;;2.38;0.90;;;15.00;99.90;;;;;;5033990;28;20506;-76
2022/10/09 10:10:03;;;;;;;2.05;0.80;;;15.00;99.90;;;;;;5035137;28;20028;-76
2022/10/09 10:12:29;;;;;;;3.95;1.08;;;15.20;99.90;;;;;;5037309;28;20029;-75
2022/10/09 10:14:54;;;;;;;4.88;0.95;;;15.40;99.90;;;;;;5021488;28;20028;-77
2022/10/09 10:17:39;;;;;;;1.67;1.10;;;15.40;99.90;;;;;;5037736;28;20183;-75
2022/10/09 10:20:13;;;;;;;2.08;0.70;;;15.60;99.90;;;;;;5015290;28;20033;-75
2022/10/09 10:22:39;;;;;;;2.30;1.30;;;16.00;98.20;;;;;;5032119;28;20035;-79
2022/10/09 10:25:07;;;;;;;1.65;0.80;;;16.20;97.60;;;;;;5026670;28;20033;-79
2022/10/09 10:27:38;;;;;;;3.08;0.90;;;16.10;96.70;;;;;;5024607;28;20063;-79
2022/10/09 10:30:09;;;;;;;2.80;0.90;;;16.40;95.30;;;;;;5032363;28;20052;-78
2022/10/09 10:32:49;;;;;;;3.38;0.80;;;16.80;94.00;;;;;;5028160;28;20080;-77
2022/10/09 10:35:22;;;;;;;3.63;0.80;;;16.50;93.30;;;;;;5032985;28;20057;-79
2022/10/09 10:38:01;;;;;;;2.22;0.70;;;16.40;93.00;;;;;;5026871;28;20032;-79
2022/10/09 10:40:36;;;;;;;3.05;1.13;;;16.70;92.20;;;;;;5033882;28;20055;-79
2022/10/09 10:43:21;;;;;;;2.20;0.82;;;17.10;92.20;;;;;;5029844;28;20823;-82
2022/10/09 10:45:59;;;;;;;2.38;0.70;;;17.90;90.60;;;;;;5030602;28;20107;-81
2022/10/09 10:48:28;;;;;;;3.35;0.88;;;18.60;90.10;;;;;;5033762;28;20055;-79
2022/10/09 10:51:08;;;;;;;1.40;0.70;;;19.10;83.10;;;;;;5028439;28;20042;-81
2022/10/09 10:54:05;;;;;;;2.10;0.80;;;19.90;78.10;;;;;;5033149;28;20029;-82
2022/10/09 10:57:02;;;;;;;1.17;0.50;;;22.20;72.90;;;;;;5033527;28;20416;-79
2022/10/09 10:59:38;;;;;;;1.33;0.95;;;23.90;57.90;;;;;;5029451;28;20041;-92
2022/10/09 11:02:28;;;;;;;0.45;0.40;;;25.50;53.20;;;;;;5027214;28;20032;-77
2022/10/09 11:05:15;;;;;;;7.18;0.80;;;27.00;48.40;;;;;;5031584;28;20094;-76
2022/10/09 11:08:06;;;;;;;4.55;0.73;;;28.90;45.70;;;;;;5036856;28;20566;-76
2022/10/09 11:10:57;;;;;;;1.50;0.90;;;30.20;41.80;;;;;;5031501;28;20032;-77
2022/10/09 11:13:37;;;;;;;1.75;0.63;;;30.80;40.20;;;;;;5025687;28;20030;-77
2022/10/09 11:16:39;;;;;;;2.43;0.87;;;31.50;38.30;;;;;;5032492;28;20123;-75
2022/10/09 11:19:27;;;;;;;1.35;0.75;;;30.70;37.80;;;;;;5033208;28;20025;-77
2022/10/09 11:22:10;;;;;;;2.00;0.93;;;26.80;43.60;;;;;;5034374;28;20446;-79
2022/10/09 11:25:16;;;;;;;4.25;0.80;;;25.20;49.00;;;;;;5029482;28;20064;-78
2022/10/09 11:27:50;;;;;;;3.10;1.38;;;29.60;43.60;;;;;;5029062;28;20040;-79
2022/10/09 11:30:17;;;;;;;0.90;0.80;;;30.30;39.90;;;;;;5034033;28;20032;-78
2022/10/09 11:32:59;;;;;;;4.18;1.17;;;27.60;43.50;;;;;;5027095;28;20029;-78
2022/10/09 11:35:43;;;;;;;4.28;0.98;;;26.40;44.30;;;;;;5030342;28;20141;-80
2022/10/09 11:38:28;;;;;;;2.28;1.02;;;22.30;53.30;;;;;;5033884;28;20422;-83
2022/10/09 11:40:55;;;;;;;3.83;2.22;;;20.00;58.20;;;;;;5034718;28;20408;-82
2022/10/09 11:43:23;;;;;;;3.55;0.82;;;18.60;62.90;;;;;;5031085;28;20539;-83
2022/10/09 11:45:59;;;;;;;1.05;0.75;;;21.60;59.70;;;;;;5041359;28;20479;-81
2022/10/09 11:48:43;;;;;;;0.88;0.80;;;24.90;51.50;;;;;;5043337;28;20391;-81
2022/10/09 11:51:22;;;;;;;4.80;1.00;;;22.00;55.00;;;;;;5039372;28;20045;-84
2022/10/09 11:53:50;;;;;;;1.95;0.68;;;20.10;58.40;;;;;;5032115;28;20063;-75
2022/10/09 11:56:33;;;;;;;2.33;0.80;;;23.90;53.80;;;;;;5038330;28;20048;-88
2022/10/09 11:59:04;;;;;;;4.05;0.80;;;30.20;42.80;;;;;;5032673;28;20714;-80
2022/10/09 12:01:41;;;;;;;4.90;0.98;;;31.00;38.40;;;;;;5027306;28;20059;-81
2022/10/09 12:04:11;;;;;;;3.20;1.35;;;25.80;45.90;;;;;;5030907;28;20037;-79
2022/10/09 12:07:08;;;;;;;3.63;1.33;;;24.00;49.70;;;;;;5035312;28;20456;-78
2022/10/09 12:09:41;;;;;;;2.25;0.95;;;21.30;55.60;;;;;;5034380;28;20043;-80
2022/10/09 12:12:20;;;;;;;2.50;0.70;;;23.80;51.10;;;;;;5031804;28;20083;-78
2022/10/09 12:14:47;;;;;;;1.85;0.70;;;24.80;47.80;;;;;;5029537;28;20033;-78
2022/10/09 12:17:34;;;;;;;1.08;0.60;;;23.20;50.90;;;;;;5025640;28;20423;-78
2022/10/09 12:20:17;;;;;;;1.55;0.70;;;23.60;52.30;;;;;;5028369;28;21015;-80
2022/10/09 12:22:54;;;;;;;1.23;0.60;;;24.60;49.60;;;;;;5032183;28;20041;-80
2022/10/09 12:25:37;;;;;;;2.03;1.05;;;26.10;45.50;;;;;;5032188;28;20043;-79
2022/10/09 12:28:04;;;;;;;1.20;0.82;;;24.80;45.20;;;;;;5034177;28;20115;-81
2022/10/09 12:30:39;;;;;;;4.43;0.60;;;21.90;50.70;;;;;;5033398;28;20029;-77
2022/10/09 12:33:14;;;;;;;1.00;0.63;;;20.20;55.10;;;;;;5033572;28;20145;-77
2022/10/09 12:35:43;;;;;;;1.80;0.70;;;19.10;57.90;;;;;;5032345;28;20156;-83
2022/10/09 12:38:17;;;;;;;3.50;0.50;;;18.50;59.90;;;;;;5032281;28;20018;-83
2022/10/09 12:40:46;;;;;;;2.35;0.63;;;18.10;62.50;;;;;;5033361;28;20464;-77
2022/10/09 12:43:17;;;;;;;5.38;1.00;;;18.10;64.90;;;;;;5036447;28;20039;-77
2022/10/09 12:45:45;;;;;;;2.17;0.60;;;18.20;63.70;;;;;;5042489;28;20025;-77
2022/10/09 12:48:13;;;;;;;2.13;1.02;;;21.00;59.00;;;;;;5040346;28;20063;-77
2022/10/09 12:50:39;;;;;;;4.03;1.20;;;22.50;56.20;;;;;;5039409;28;20033;-78
2022/10/09 12:53:12;;;;;;;7.60;1.23;;;25.70;50.70;;;;;;5040697;28;20017;-78
2022/10/09 12:55:44;;;;;;;3.75;0.82;;;27.90;43.70;;;;;;5040540;28;20455;-78
2022/10/09 12:58:25;;;;;;;1.77;0.80;;;30.70;38.30;;;;;;5037486;28;20024;-78
2022/10/09 13:00:58;;;;;;;1.85;0.90;;;32.40;35.90;;;;;;5036091;28;20040;-77
2022/10/09 13:03:35;;;;;;;3.75;0.70;;;31.40;35.60;;;;;;5031559;28;20075;-77
2022/10/09 13:06:18;;;;;;;1.20;0.70;;;26.60;41.70;;;;;;5035744;28;20757;-77
2022/10/09 13:08:49;;;;;;;1.10;0.63;;;22.90;48.50;;;;;;5036267;28;20109;-77
2022/10/09 13:11:33;;;;;;;2.33;0.70;;;21.10;53.10;;;;;;5037048;28;20377;-77
2022/10/09 13:13:59;;;;;;;2.53;1.10;;;20.20;56.20;;;;;;5035228;28;20198;-77